createdAt,value
2023-03-16T00:00:51.039Z,4.80
2023-03-16T00:01:53.545Z,4.87
2023-03-16T00:02:56.007Z,4.92
2023-03-16T00:04:02.390Z,4.95
2023-03-16T00:05:11.716Z,4.67
2023-03-16T00:06:16.394Z,4.68
2023-03-16T00:07:22.784Z,4.64
2023-03-16T00:08:30.324Z,4.72
2023-03-16T00:09:33.767Z,4.73
2023-03-16T00:10:36.830Z,4.68
2023-03-16T00:11:40.014Z,4.72
2023-03-16T00:12:44.140Z,4.64
2023-03-16T00:13:49.573Z,4.67
2023-03-16T00:14:55.839Z,4.65
2023-03-16T00:16:05.430Z,4.72
2023-03-16T00:17:19.762Z,4.68
2023-03-16T00:18:28.695Z,4.77
2023-03-16T00:19:35.588Z,4.70
2023-03-16T00:20:42.250Z,4.68
2023-03-16T00:21:44.654Z,4.66
2023-03-16T00:22:47.814Z,4.75
2023-03-16T00:23:49.921Z,4.67
2023-03-16T00:24:53.972Z,4.71
2023-03-16T00:25:59.883Z,4.66
2023-03-16T00:27:04.176Z,4.65
2023-03-16T00:28:09.685Z,4.57
2023-03-16T00:29:12.614Z,4.58
2023-03-16T00:30:19.253Z,4.53
2023-03-16T00:31:25.278Z,4.51
2023-03-16T00:32:37.742Z,4.55
2023-03-16T00:33:43.102Z,4.68
2023-03-16T00:34:47.174Z,4.65
2023-03-16T00:35:51.453Z,4.64
2023-03-16T00:36:55.363Z,4.66
2023-03-16T00:37:57.994Z,4.67
2023-03-16T00:39:01.120Z,4.61
2023-03-16T00:40:08.984Z,4.61
2023-03-16T00:41:19.193Z,4.70
2023-03-16T00:42:33.255Z,4.72
2023-03-16T00:43:45.619Z,4.54
2023-03-16T00:44:48.808Z,4.62
2023-03-16T00:46:00.940Z,4.52
2023-03-16T00:47:14.760Z,4.58
2023-03-16T00:48:24.596Z,4.60
2023-03-16T00:49:27.242Z,4.46
2023-03-16T00:50:30.095Z,4.56
2023-03-16T00:51:34.126Z,4.49
2023-03-16T00:52:40.023Z,4.55
2023-03-16T00:53:49.028Z,4.56
2023-03-16T00:54:53.481Z,4.57
2023-03-16T00:55:57.705Z,4.51
2023-03-16T00:57:02.795Z,4.58
2023-03-16T00:58:17.983Z,4.59
2023-03-16T00:59:22.433Z,4.56
2023-03-16T01:00:28.679Z,4.63
2023-03-16T01:01:34.419Z,4.55
2023-03-16T01:02:42.204Z,4.52
2023-03-16T01:03:45.160Z,4.54
2023-03-16T01:04:54.542Z,4.58
2023-03-16T01:06:00.385Z,4.60
2023-03-16T01:07:05.002Z,4.65
2023-03-16T01:08:07.417Z,4.71
2023-03-16T01:09:15.547Z,4.67
2023-03-16T01:10:22.769Z,4.72
2023-03-16T01:11:29.260Z,4.78
2023-03-16T01:12:35.544Z,4.75
2023-03-16T01:13:39.379Z,4.74
2023-03-16T01:16:08.331Z,4.67
2023-03-16T01:17:14.032Z,4.56
2023-03-16T01:18:25.527Z,4.72
2023-03-16T01:19:31.303Z,4.52
2023-03-16T01:20:35.117Z,4.61
2023-03-16T01:21:45.467Z,4.70
2023-03-16T01:22:49.439Z,4.66
2023-03-16T01:23:54.976Z,4.54
2023-03-16T01:25:00.674Z,4.67
2023-03-16T01:26:12.737Z,4.67
2023-03-16T01:27:16.868Z,4.64
2023-03-16T01:28:22.199Z,4.62
2023-03-16T01:29:25.520Z,4.58
2023-03-16T01:30:30.838Z,4.62
2023-03-16T01:31:34.914Z,4.59
2023-03-16T01:32:38.400Z,4.67
2023-03-16T01:33:44.432Z,4.61
2023-03-16T01:34:50.827Z,4.68
2023-03-16T01:35:56.579Z,4.62
2023-03-16T01:37:05.846Z,4.54
2023-03-16T01:38:23.132Z,4.68
2023-03-16T01:39:25.911Z,4.73
2023-03-16T01:40:30.740Z,4.61
2023-03-16T01:41:33.045Z,4.54
2023-03-16T01:42:45.917Z,4.57
2023-03-16T01:43:49.392Z,4.52
2023-03-16T01:44:55.524Z,4.44
2023-03-16T01:46:19.784Z,4.51
2023-03-16T01:47:24.118Z,4.61
2023-03-16T01:48:28.908Z,4.54
2023-03-16T01:49:39.155Z,4.36
2023-03-16T01:50:46.338Z,4.40
2023-03-16T01:51:56.445Z,4.36
2023-03-16T01:53:01.857Z,4.41
2023-03-16T01:54:15.070Z,4.39
2023-03-16T01:55:18.552Z,4.51
2023-03-16T01:56:27.483Z,4.52
2023-03-16T01:57:37.160Z,4.54
2023-03-16T01:58:42.748Z,4.56
2023-03-16T01:59:49.374Z,4.63
2023-03-16T02:00:52.246Z,4.47
2023-03-16T02:01:59.443Z,4.56
2023-03-16T02:03:11.897Z,4.61
2023-03-16T02:04:34.339Z,4.61
2023-03-16T02:05:56.736Z,4.62
2023-03-16T02:07:01.444Z,4.66
2023-03-16T02:08:07.221Z,4.52
2023-03-16T02:09:12.501Z,4.55
2023-03-16T02:10:23.853Z,4.52
2023-03-16T02:11:30.852Z,4.60
2023-03-16T02:12:51.531Z,4.44
2023-03-16T02:14:16.208Z,4.54
2023-03-16T02:15:27.645Z,4.64
2023-03-16T02:16:30.261Z,4.53
2023-03-16T02:17:36.196Z,4.56
2023-03-16T02:18:44.555Z,4.49
2023-03-16T02:20:38.532Z,4.55
2023-03-16T02:22:07.619Z,4.51
2023-03-16T02:23:19.785Z,4.42
2023-03-16T02:24:25.549Z,4.54
2023-03-16T02:25:37.368Z,4.43
2023-03-16T02:26:58.538Z,4.50
2023-03-16T02:28:21.472Z,4.42
2023-03-16T02:29:52.031Z,4.54
2023-03-16T02:30:58.996Z,4.64
2023-03-16T02:32:03.182Z,4.62
2023-03-16T02:33:07.908Z,4.63
2023-03-16T02:34:10.813Z,4.53
2023-03-16T02:35:13.995Z,4.49
2023-03-16T02:36:19.936Z,4.50
2023-03-16T02:37:23.182Z,4.44
2023-03-16T02:38:27.520Z,4.45
2023-03-16T02:39:31.740Z,4.51
2023-03-16T02:40:36.771Z,4.57
2023-03-16T02:41:43.171Z,4.55
2023-03-16T02:43:05.040Z,4.54
2023-03-16T02:44:34.461Z,4.57
2023-03-16T02:45:49.924Z,4.65
2023-03-16T02:47:03.043Z,4.60
2023-03-16T02:48:14.831Z,4.63
2023-03-16T02:49:27.642Z,4.59
2023-03-16T02:50:30.421Z,4.43
2023-03-16T02:51:33.461Z,4.61
2023-03-16T02:52:40.401Z,4.59
2023-03-16T02:53:52.910Z,4.67
2023-03-16T02:54:59.231Z,4.48
2023-03-16T02:56:05.324Z,4.62
2023-03-16T02:57:22.214Z,4.75
2023-03-16T02:58:30.532Z,4.63
2023-03-16T02:59:34.316Z,4.58
2023-03-16T03:00:41.021Z,4.55
2023-03-16T03:01:43.348Z,4.66
2023-03-16T03:02:49.648Z,4.62
2023-03-16T03:03:56.238Z,4.59
2023-03-16T03:05:02.159Z,4.55
2023-03-16T03:06:08.260Z,4.70
2023-03-16T03:07:16.070Z,4.67
2023-03-16T03:08:39.781Z,4.76
2023-03-16T03:09:44.033Z,4.70
2023-03-16T03:10:51.512Z,4.68
2023-03-16T03:11:56.398Z,4.69
2023-03-16T03:13:00.689Z,4.61
2023-03-16T03:14:06.041Z,4.61
2023-03-16T03:15:10.366Z,4.57
2023-03-16T03:16:27.460Z,4.64
2023-03-16T03:17:34.298Z,4.66
2023-03-16T03:18:38.354Z,4.56
2023-03-16T03:19:40.804Z,4.46
2023-03-16T03:20:44.585Z,4.58
2023-03-16T03:21:48.140Z,4.57
2023-03-16T03:22:53.827Z,4.76
2023-03-16T03:24:00.609Z,4.73
2023-03-16T03:26:42.584Z,4.74
2023-03-16T03:27:57.325Z,4.69
2023-03-16T03:29:01.317Z,4.54
2023-03-16T03:30:13.187Z,4.67
2023-03-16T03:31:19.409Z,4.52
2023-03-16T03:32:26.412Z,4.46
2023-03-16T03:33:33.892Z,4.38
2023-03-16T03:34:47.557Z,4.44
2023-03-16T03:35:58.669Z,4.57
2023-03-16T03:37:07.995Z,4.62
2023-03-16T03:38:14.884Z,4.57
2023-03-16T03:39:21.814Z,4.59
2023-03-16T03:40:26.315Z,4.67
2023-03-16T03:41:36.234Z,4.62
2023-03-16T03:42:43.749Z,4.49
2023-03-16T03:43:48.624Z,4.68
2023-03-16T03:44:54.143Z,4.63
2023-03-16T03:46:01.254Z,4.65
2023-03-16T03:47:10.728Z,4.69
2023-03-16T03:48:13.804Z,4.54
2023-03-16T03:49:18.181Z,4.68
2023-03-16T03:50:21.506Z,4.49
2023-03-16T03:51:34.799Z,4.56
2023-03-16T03:52:48.226Z,4.63
2023-03-16T03:53:52.423Z,4.71
2023-03-16T03:55:14.007Z,4.71
2023-03-16T03:56:22.879Z,4.65
2023-03-16T03:57:25.209Z,4.65
2023-03-16T03:58:27.360Z,4.63
2023-03-16T03:59:29.859Z,4.69
2023-03-16T04:00:33.823Z,4.65
2023-03-16T04:01:40.981Z,4.75
2023-03-16T04:02:45.527Z,4.72
2023-03-16T04:04:09.042Z,4.81
2023-03-16T04:05:16.577Z,4.73
2023-03-16T04:06:24.173Z,4.64
2023-03-16T04:07:33.590Z,4.71
2023-03-16T04:08:40.881Z,4.65
2023-03-16T04:10:17.605Z,4.61
2023-03-16T04:11:27.758Z,4.54
2023-03-16T04:12:36.681Z,4.53
2023-03-16T04:13:47.580Z,4.55
2023-03-16T04:14:55.675Z,4.65
2023-03-16T04:16:03.800Z,4.61
2023-03-16T04:17:16.013Z,4.65
2023-03-16T04:18:29.689Z,4.74
2023-03-16T04:19:32.295Z,4.61
2023-03-16T04:20:43.559Z,4.62
2023-03-16T04:21:59.544Z,4.64
2023-03-16T04:23:22.825Z,4.55
2023-03-16T04:24:46.673Z,4.35
2023-03-16T04:26:43.652Z,4.41
2023-03-16T04:34:26.918Z,4.14
2023-03-16T04:35:38.968Z,4.13
2023-03-16T04:36:47.233Z,4.20
2023-03-16T04:38:02.819Z,4.20
2023-03-16T04:39:34.211Z,4.32
2023-03-16T04:40:51.753Z,4.17
2023-03-16T04:42:23.064Z,4.19
2023-03-16T04:43:37.779Z,4.20
2023-03-16T04:44:54.170Z,4.17
2023-03-16T04:45:58.916Z,4.26
2023-03-16T04:47:11.392Z,4.23
2023-03-16T04:48:26.279Z,4.18
2023-03-16T04:49:31.628Z,4.13
2023-03-16T04:50:36.868Z,4.22
2023-03-16T04:51:43.017Z,4.24
2023-03-16T04:53:21.825Z,4.27
2023-03-16T04:54:32.833Z,4.26
2023-03-16T04:55:36.998Z,4.21
2023-03-16T04:56:47.263Z,4.29
2023-03-16T04:58:05.601Z,4.19
2023-03-16T04:59:16.235Z,4.29
2023-03-16T05:01:57.332Z,4.32
2023-03-16T05:03:08.197Z,4.28
2023-03-16T05:04:19.685Z,4.36
2023-03-16T05:05:23.340Z,4.35
2023-03-16T05:06:29.832Z,4.31
2023-03-16T05:07:34.782Z,4.34
2023-03-16T05:08:43.622Z,4.34
2023-03-16T05:09:48.340Z,4.22
2023-03-16T05:10:58.033Z,4.29
2023-03-16T05:12:25.299Z,4.38
2023-03-16T05:13:34.544Z,4.09
2023-03-16T05:14:37.119Z,4.16
2023-03-16T05:15:49.702Z,4.23
2023-03-16T05:16:57.607Z,4.12
2023-03-16T05:18:03.172Z,4.04
2023-03-16T05:19:08.738Z,4.14
2023-03-16T05:20:15.964Z,4.13
2023-03-16T05:21:22.863Z,4.18
2023-03-16T05:22:32.584Z,4.20
2023-03-16T05:23:54.590Z,4.24
2023-03-16T05:24:57.209Z,4.19
2023-03-16T05:26:13.753Z,4.30
2023-03-16T05:27:20.443Z,4.40
2023-03-16T05:28:25.028Z,4.45
2023-03-16T05:29:33.298Z,4.32
2023-03-16T05:30:41.974Z,4.44
2023-03-16T05:31:47.911Z,4.37
2023-03-16T05:32:59.746Z,4.38
2023-03-16T05:34:11.169Z,4.28
2023-03-16T05:35:14.590Z,4.44
2023-03-16T05:36:17.749Z,4.50
2023-03-16T05:37:24.494Z,4.53
2023-03-16T05:38:38.270Z,4.42
2023-03-16T05:39:44.430Z,4.48
2023-03-16T05:40:53.228Z,4.59
2023-03-16T05:42:16.559Z,4.53
2023-03-16T05:43:31.717Z,4.46
2023-03-16T05:44:36.976Z,4.49
2023-03-16T05:45:59.292Z,4.45
2023-03-16T05:47:02.464Z,4.35
2023-03-16T05:48:08.661Z,4.31
2023-03-16T05:49:20.152Z,4.35
2023-03-16T05:50:23.535Z,4.44
2023-03-16T05:51:29.105Z,4.33
2023-03-16T05:52:32.851Z,4.52
2023-03-16T05:53:47.451Z,4.43
2023-03-16T05:55:13.730Z,4.41
2023-03-16T05:56:16.973Z,4.13
2023-03-16T05:57:21.345Z,4.18
2023-03-16T05:58:26.581Z,4.16
2023-03-16T05:59:31.206Z,4.23
2023-03-16T06:00:34.016Z,4.34
2023-03-16T06:01:46.856Z,4.57
2023-03-16T06:02:52.109Z,4.19
2023-03-16T06:03:55.041Z,4.37
2023-03-16T06:05:02.255Z,4.38
2023-03-16T06:06:04.679Z,4.44
2023-03-16T06:07:14.316Z,4.30
2023-03-16T06:08:16.700Z,4.50
2023-03-16T06:09:22.683Z,4.63
2023-03-16T06:10:27.083Z,4.68
2023-03-16T06:11:29.607Z,4.47
2023-03-16T06:12:32.726Z,4.53
2023-03-16T06:13:35.689Z,4.56
2023-03-16T06:14:40.167Z,4.58
2023-03-16T06:15:44.614Z,4.67
2023-03-16T06:16:48.598Z,4.58
2023-03-16T06:17:52.726Z,4.46
2023-03-16T06:18:58.518Z,4.60
2023-03-16T06:21:23.382Z,4.58
2023-03-16T06:22:31.944Z,4.62
2023-03-16T06:23:37.483Z,4.69
2023-03-16T06:24:42.841Z,4.54
2023-03-16T06:25:48.375Z,4.54
2023-03-16T06:26:51.625Z,4.59
2023-03-16T06:27:56.655Z,4.44
2023-03-16T06:29:01.407Z,4.65
2023-03-16T06:30:07.225Z,4.53
2023-03-16T06:31:10.033Z,4.62
2023-03-16T06:32:13.321Z,4.45
2023-03-16T06:33:16.604Z,4.36
2023-03-16T06:34:24.173Z,4.51
2023-03-16T06:36:57.237Z,4.41
2023-03-16T06:38:02.331Z,4.47
2023-03-16T06:39:34.862Z,4.68
2023-03-16T06:40:38.132Z,4.62
2023-03-16T06:41:43.354Z,4.50
2023-03-16T06:42:48.570Z,4.39
2023-03-16T06:43:55.923Z,4.45
2023-03-16T06:45:01.363Z,4.52
2023-03-16T06:46:05.982Z,4.36
2023-03-16T06:47:08.836Z,4.54
2023-03-16T06:48:32.524Z,4.33
2023-03-16T06:49:39.551Z,4.45
2023-03-16T06:51:18.624Z,4.42
2023-03-16T06:52:23.075Z,4.57
2023-03-16T06:53:25.767Z,4.73
2023-03-16T06:54:29.796Z,4.72
2023-03-16T06:55:32.720Z,4.79
2023-03-16T06:56:37.521Z,4.78
2023-03-16T06:57:41.638Z,4.61
2023-03-16T06:58:48.519Z,4.71
2023-03-16T06:59:51.409Z,4.73
2023-03-16T07:00:54.389Z,4.79
2023-03-16T07:01:57.894Z,4.59
2023-03-16T07:03:02.326Z,4.84
2023-03-16T07:04:06.066Z,4.96
2023-03-16T07:05:13.905Z,5.08
2023-03-16T07:06:18.133Z,5.20
2023-03-16T07:07:20.464Z,5.25
2023-03-16T07:08:23.099Z,5.21
2023-03-16T07:09:26.581Z,5.29
2023-03-16T07:10:29.996Z,4.99
2023-03-16T07:11:36.758Z,4.73
2023-03-16T07:12:42.021Z,4.88
2023-03-16T07:13:45.582Z,5.00
2023-03-16T07:14:54.379Z,5.05
2023-03-16T07:16:00.360Z,4.91
2023-03-16T07:17:02.776Z,4.92
2023-03-16T07:18:11.023Z,5.15
2023-03-16T07:19:13.810Z,5.09
2023-03-16T07:20:23.751Z,5.14
2023-03-16T07:21:26.353Z,5.05
2023-03-16T07:22:29.184Z,4.84
2023-03-16T07:23:33.678Z,4.61
2023-03-16T07:24:42.355Z,4.80
2023-03-16T07:25:46.248Z,4.57
2023-03-16T07:26:53.489Z,4.75
2023-03-16T07:28:10.771Z,4.79
2023-03-16T07:29:18.955Z,4.75
2023-03-16T07:30:22.409Z,4.98
2023-03-16T07:31:26.072Z,4.91
2023-03-16T07:32:30.437Z,4.87
2023-03-16T07:33:36.313Z,4.83
2023-03-16T07:34:43.846Z,4.79
2023-03-16T07:35:46.769Z,4.65
2023-03-16T07:36:49.782Z,4.87
2023-03-16T07:37:52.294Z,4.85
2023-03-16T07:38:55.447Z,4.79
2023-03-16T07:39:57.915Z,4.83
2023-03-16T07:41:01.456Z,4.80
2023-03-16T07:42:04.506Z,4.69
2023-03-16T07:43:19.844Z,4.69
2023-03-16T07:44:25.506Z,4.59
2023-03-16T07:45:30.334Z,4.51
2023-03-16T07:46:33.704Z,4.53
2023-03-16T07:47:36.824Z,4.73
2023-03-16T07:48:46.553Z,4.90
2023-03-16T07:49:52.762Z,4.90
2023-03-16T07:51:07.452Z,4.81
2023-03-16T07:52:10.257Z,4.80
2023-03-16T07:53:30.655Z,4.73
2023-03-16T07:55:11.432Z,4.72
2023-03-16T07:56:17.400Z,4.78
2023-03-16T07:57:23.652Z,4.88
2023-03-16T07:58:26.167Z,4.97
2023-03-16T07:59:29.449Z,5.09
2023-03-16T08:00:32.730Z,5.07
2023-03-16T08:01:39.176Z,5.01
2023-03-16T08:02:42.707Z,5.08
2023-03-16T08:03:48.434Z,5.23
2023-03-16T08:04:52.248Z,5.26
2023-03-16T08:05:55.673Z,5.12
2023-03-16T08:07:02.581Z,4.89
2023-03-16T08:08:20.657Z,4.68
2023-03-16T08:09:23.750Z,5.06
2023-03-16T08:10:32.515Z,5.32
2023-03-16T08:11:47.276Z,5.07
2023-03-16T08:12:49.842Z,5.30
2023-03-16T08:13:56.859Z,5.14
2023-03-16T08:15:02.712Z,5.31
2023-03-16T08:16:10.825Z,5.29
2023-03-16T08:17:15.733Z,5.38
2023-03-16T08:18:19.788Z,5.59
2023-03-16T08:19:23.023Z,5.34
2023-03-16T08:20:26.933Z,5.21
2023-03-16T08:21:30.707Z,5.21
2023-03-16T08:22:37.539Z,5.17
2023-03-16T08:23:40.507Z,5.13
2023-03-16T08:24:45.381Z,5.20
2023-03-16T08:25:55.484Z,5.44
2023-03-16T08:28:26.421Z,5.40
2023-03-16T08:29:31.228Z,5.71
2023-03-16T08:30:34.414Z,5.85
2023-03-16T08:31:56.469Z,5.79
2023-03-16T08:33:07.169Z,5.54
2023-03-16T08:34:12.644Z,5.66
2023-03-16T08:35:20.884Z,5.61
2023-03-16T08:36:25.354Z,5.57
2023-03-16T08:37:30.068Z,5.46
2023-03-16T08:38:35.265Z,5.47
2023-03-16T08:39:42.812Z,5.57
2023-03-16T08:40:51.395Z,5.63
2023-03-16T08:41:59.007Z,5.64
2023-03-16T08:43:19.458Z,5.45
2023-03-16T08:44:29.023Z,5.50
2023-03-16T08:45:31.655Z,5.62
2023-03-16T08:46:34.609Z,5.65
2023-03-16T08:47:40.695Z,5.77
2023-03-16T08:48:51.528Z,5.69
2023-03-16T08:50:00.518Z,5.53
2023-03-16T08:51:04.395Z,5.51
2023-03-16T08:52:10.520Z,5.69
2023-03-16T08:53:17.518Z,5.71
2023-03-16T08:54:20.628Z,5.77
2023-03-16T08:55:24.699Z,5.67
2023-03-16T08:56:27.629Z,5.75
2023-03-16T08:57:34.887Z,5.83
2023-03-16T08:58:40.505Z,5.63
2023-03-16T08:59:45.190Z,5.43
2023-03-16T09:00:51.006Z,5.59
2023-03-16T09:02:04.484Z,5.63
2023-03-16T09:03:08.264Z,5.27
2023-03-16T09:04:12.033Z,5.35
2023-03-16T09:05:16.136Z,5.44
2023-03-16T09:06:18.932Z,5.38
2023-03-16T09:07:21.310Z,5.39
2023-03-16T09:08:27.721Z,5.61
2023-03-16T09:09:36.018Z,5.74
2023-03-16T09:10:38.377Z,5.28
2023-03-16T09:11:40.643Z,4.94
2023-03-16T09:12:45.600Z,5.03
2023-03-16T09:13:48.477Z,5.24
2023-03-16T09:14:52.065Z,5.21
2023-03-16T09:15:55.375Z,5.18
2023-03-16T09:16:57.770Z,4.97
2023-03-16T09:18:04.005Z,5.20
2023-03-16T09:19:07.579Z,5.22
2023-03-16T09:20:34.890Z,5.07
2023-03-16T09:21:37.869Z,4.93
2023-03-16T09:22:41.656Z,5.16
2023-03-16T09:23:44.698Z,5.19
2023-03-16T09:24:53.213Z,5.22
2023-03-16T09:26:05.627Z,5.37
2023-03-16T09:27:08.123Z,5.45
2023-03-16T09:28:13.323Z,5.59
2023-03-16T09:29:16.445Z,5.61
2023-03-16T09:30:19.277Z,5.50
2023-03-16T09:31:23.119Z,5.57
2023-03-16T09:32:25.930Z,5.63
2023-03-16T09:33:30.133Z,5.60
2023-03-16T09:34:34.801Z,5.65
2023-03-16T09:35:38.055Z,5.70
2023-03-16T09:36:42.000Z,5.69
2023-03-16T09:38:01.048Z,5.93
2023-03-16T09:39:10.189Z,6.05
2023-03-16T09:40:36.199Z,6.11
2023-03-16T09:41:49.551Z,6.32
2023-03-16T09:43:06.983Z,6.16
2023-03-16T09:44:56.072Z,6.33
2023-03-16T09:46:42.499Z,5.66
2023-03-16T09:47:50.783Z,5.96
2023-03-16T09:48:55.552Z,5.69
2023-03-16T09:50:07.028Z,5.62
2023-03-16T09:51:45.079Z,5.79
2023-03-16T09:53:05.752Z,5.85
2023-03-16T09:54:48.453Z,5.50
2023-03-16T09:55:58.970Z,5.37
2023-03-16T09:57:06.878Z,5.45
2023-03-16T09:58:22.977Z,5.41
2023-03-16T09:59:29.794Z,5.67
2023-03-16T10:00:42.077Z,5.63
2023-03-16T10:02:05.364Z,5.73
2023-03-16T10:03:59.409Z,5.74
2023-03-16T10:05:20.622Z,5.91
2023-03-16T10:06:42.631Z,5.96
2023-03-16T10:08:13.462Z,6.03
2023-03-16T10:09:40.637Z,5.98
2023-03-16T10:11:17.722Z,6.00
2023-03-16T10:12:33.826Z,6.07
2023-03-16T10:14:08.169Z,6.39
2023-03-16T10:15:15.667Z,6.30
2023-03-16T10:16:23.612Z,6.29
2023-03-16T10:17:29.613Z,6.25
2023-03-16T10:18:43.940Z,6.35
2023-03-16T10:19:51.881Z,6.34
2023-03-16T10:20:58.672Z,6.21
2023-03-16T10:22:10.286Z,6.26
2023-03-16T10:23:26.198Z,6.37
2023-03-16T10:25:08.337Z,6.28
2023-03-16T10:26:15.084Z,6.21
2023-03-16T10:27:29.188Z,6.17
2023-03-16T10:28:32.554Z,6.13
2023-03-16T10:29:37.259Z,6.21
2023-03-16T10:30:42.832Z,6.18
2023-03-16T10:31:49.375Z,6.17
2023-03-16T10:32:53.373Z,6.14
2023-03-16T10:34:04.960Z,6.06
2023-03-16T10:35:30.223Z,5.94
2023-03-16T10:36:35.944Z,6.05
2023-03-16T10:37:39.068Z,6.00
2023-03-16T10:38:47.021Z,5.99
2023-03-16T10:39:50.533Z,5.91
2023-03-16T10:40:54.642Z,5.90
2023-03-16T10:41:59.493Z,6.09
2023-03-16T10:43:14.623Z,6.14
2023-03-16T10:44:23.934Z,6.10
2023-03-16T10:45:32.321Z,6.13
2023-03-16T10:46:39.657Z,6.18
2023-03-16T10:47:42.426Z,5.98
2023-03-16T10:49:00.408Z,6.14
2023-03-16T10:50:16.957Z,6.09
2023-03-16T10:51:26.318Z,6.14
2023-03-16T10:52:50.162Z,6.08
2023-03-16T10:53:53.148Z,6.19
2023-03-16T10:55:21.419Z,5.76
2023-03-16T10:56:26.584Z,5.95
2023-03-16T10:57:42.387Z,6.16
2023-03-16T10:58:46.588Z,6.06
2023-03-16T10:59:50.986Z,6.04
2023-03-16T11:00:55.367Z,5.74
2023-03-16T11:01:58.592Z,5.74
2023-03-16T11:03:02.046Z,5.78
2023-03-16T11:04:16.780Z,5.61
2023-03-16T11:05:19.246Z,5.71
2023-03-16T11:06:40.120Z,5.73
2023-03-16T11:08:02.545Z,5.72
2023-03-16T11:09:15.266Z,5.91
2023-03-16T11:10:46.110Z,5.89
2023-03-16T11:11:56.100Z,6.00
2023-03-16T11:13:21.637Z,5.88
2023-03-16T11:14:28.997Z,5.82
2023-03-16T11:16:02.906Z,5.90
2023-03-16T11:17:15.131Z,5.84
2023-03-16T11:18:30.250Z,5.50
2023-03-16T11:19:49.669Z,5.63
2023-03-16T11:20:53.268Z,5.48
2023-03-16T11:22:16.729Z,5.49
2023-03-16T11:23:29.739Z,5.41
2023-03-16T11:24:52.992Z,5.46
2023-03-16T11:25:59.689Z,5.57
2023-03-16T11:27:08.741Z,5.49
2023-03-16T11:29:36.293Z,5.82
2023-03-16T11:30:48.046Z,5.76
2023-03-16T11:31:53.821Z,5.58
2023-03-16T11:32:57.038Z,5.74
2023-03-16T11:34:00.346Z,5.74
2023-03-16T11:35:08.244Z,5.75
2023-03-16T11:36:32.022Z,5.86
2023-03-16T11:38:09.875Z,5.84
2023-03-16T11:39:18.334Z,5.55
2023-03-16T11:40:54.203Z,5.55
2023-03-16T11:42:04.813Z,5.64
2023-03-16T11:43:10.090Z,5.49
2023-03-16T11:44:29.269Z,5.63
2023-03-16T11:45:33.961Z,5.65
2023-03-16T11:46:44.791Z,5.72
2023-03-16T11:48:00.118Z,5.65
2023-03-16T11:49:30.263Z,5.62
2023-03-16T11:50:58.966Z,5.64
2023-03-16T11:52:20.329Z,5.66
2023-03-16T11:53:36.492Z,5.65
2023-03-16T11:54:56.458Z,5.55
2023-03-16T11:56:29.006Z,5.62
2023-03-16T11:58:10.622Z,5.56
2023-03-16T11:59:34.869Z,5.56
2023-03-16T12:00:59.591Z,5.52
2023-03-16T12:02:48.756Z,5.50
2023-03-16T12:04:30.851Z,5.62
2023-03-16T12:06:22.227Z,5.48
2023-03-16T12:07:40.201Z,5.31
2023-03-16T12:09:04.777Z,5.49
2023-03-16T12:10:39.179Z,5.59
2023-03-16T12:12:00.615Z,5.54
2023-03-16T12:13:30.930Z,5.63
2023-03-16T12:14:53.511Z,5.36
2023-03-16T12:16:13.152Z,5.49
2023-03-16T12:17:28.382Z,5.51
2023-03-16T12:18:57.865Z,5.45
2023-03-16T12:20:29.197Z,5.39
2023-03-16T12:21:43.360Z,5.43
2023-03-16T12:23:05.605Z,5.39
2023-03-16T12:24:22.925Z,5.36
2023-03-16T12:25:35.158Z,5.53
2023-03-16T12:26:42.849Z,5.49
2023-03-16T12:27:53.376Z,5.52
2023-03-16T12:28:58.884Z,5.56
2023-03-16T12:30:21.764Z,5.48
2023-03-16T12:31:49.868Z,5.53
2023-03-16T12:33:18.821Z,5.46
2023-03-16T12:34:21.201Z,5.30
2023-03-16T12:35:26.699Z,5.50
2023-03-16T12:36:49.577Z,5.36
2023-03-16T12:38:26.006Z,5.27
2023-03-16T12:39:47.303Z,5.36
2023-03-16T12:41:05.267Z,5.61
2023-03-16T12:42:29.602Z,5.51
2023-03-16T12:43:38.036Z,5.30
2023-03-16T12:44:55.529Z,5.23
2023-03-16T12:46:23.252Z,5.45
2023-03-16T12:47:55.211Z,5.47
2023-03-16T12:49:01.989Z,5.45
2023-03-16T12:50:11.641Z,5.44
2023-03-16T12:51:14.271Z,5.39
2023-03-16T12:52:20.704Z,5.60
2023-03-16T12:53:44.895Z,5.45
2023-03-16T12:55:05.983Z,5.32
2023-03-16T12:56:18.717Z,5.41
2023-03-16T12:58:49.637Z,5.27
2023-03-16T13:00:00.320Z,5.32
2023-03-16T13:01:05.702Z,5.38
2023-03-16T13:02:25.141Z,5.40
2023-03-16T13:03:29.207Z,5.34
2023-03-16T13:04:35.751Z,5.48
2023-03-16T13:05:46.674Z,5.58
2023-03-16T13:06:53.056Z,5.50
2023-03-16T13:08:16.765Z,5.55
2023-03-16T13:09:25.137Z,5.40
2023-03-16T13:10:29.060Z,5.50
2023-03-16T13:11:53.903Z,5.49
2023-03-16T13:13:07.810Z,5.49
2023-03-16T13:14:18.543Z,5.35
2023-03-16T13:15:21.595Z,5.37
2023-03-16T13:16:33.615Z,5.39
2023-03-16T13:17:41.448Z,5.41
2023-03-16T13:18:46.819Z,5.36
2023-03-16T13:20:31.318Z,5.32
2023-03-16T13:21:43.221Z,5.16
2023-03-16T13:22:50.445Z,5.07
2023-03-16T13:24:27.628Z,5.00
2023-03-16T13:25:31.093Z,5.09
2023-03-16T13:26:55.254Z,4.87
2023-03-16T13:28:02.744Z,4.81
2023-03-16T13:29:29.157Z,4.65
2023-03-16T13:30:34.563Z,4.71
2023-03-16T13:31:41.736Z,4.58
2023-03-16T13:32:47.550Z,4.54
2023-03-16T13:33:57.136Z,4.64
2023-03-16T13:35:02.909Z,4.50
2023-03-16T13:36:08.524Z,4.64
2023-03-16T13:37:18.486Z,4.66
2023-03-16T13:38:27.759Z,4.64
2023-03-16T13:39:34.521Z,4.74
2023-03-16T13:40:48.982Z,4.64
2023-03-16T13:42:00.379Z,4.56
2023-03-16T13:43:04.543Z,4.65
2023-03-16T13:44:19.099Z,4.68
2023-03-16T13:45:33.551Z,4.65
2023-03-16T13:46:40.122Z,4.52
2023-03-16T13:47:49.325Z,4.58
2023-03-16T13:48:53.715Z,4.52
2023-03-16T13:49:59.019Z,4.48
2023-03-16T13:51:02.138Z,4.41
2023-03-16T13:52:06.207Z,4.30
2023-03-16T13:53:30.836Z,4.30
2023-03-16T13:54:39.210Z,4.37
2023-03-16T13:55:47.780Z,4.33
2023-03-16T13:56:54.062Z,4.35
2023-03-16T13:57:58.443Z,4.26
2023-03-16T13:59:02.023Z,4.31
2023-03-16T14:00:19.016Z,4.36
2023-03-16T14:01:32.922Z,4.24
2023-03-16T14:02:45.981Z,4.21
2023-03-16T14:03:49.408Z,4.19
2023-03-16T14:04:53.181Z,4.22
2023-03-16T14:05:58.228Z,4.18
2023-03-16T14:07:02.935Z,4.30
2023-03-16T14:08:15.644Z,4.27
2023-03-16T14:09:23.405Z,4.29
2023-03-16T14:10:33.663Z,4.21
2023-03-16T14:11:36.094Z,4.32
2023-03-16T14:12:50.844Z,4.40
2023-03-16T14:13:56.573Z,4.29
2023-03-16T14:14:59.243Z,4.30
2023-03-16T14:16:04.717Z,4.28
2023-03-16T14:17:15.650Z,4.23
2023-03-16T14:18:23.667Z,4.37
2023-03-16T14:19:41.824Z,4.44
2023-03-16T14:20:46.648Z,4.31
2023-03-16T14:21:56.514Z,4.25
2023-03-16T14:23:01.348Z,4.26
2023-03-16T14:24:07.746Z,4.30
2023-03-16T14:25:23.060Z,4.32
2023-03-16T14:26:27.304Z,4.22
2023-03-16T14:27:46.977Z,4.21
2023-03-16T14:29:05.481Z,4.27
2023-03-16T14:30:28.120Z,4.22
2023-03-16T14:31:38.823Z,4.30
2023-03-16T14:32:42.782Z,4.32
2023-03-16T14:33:48.592Z,4.35
2023-03-16T14:34:54.567Z,4.25
2023-03-16T14:36:11.110Z,4.18
2023-03-16T14:37:19.478Z,4.45
2023-03-16T14:38:41.416Z,4.49
2023-03-16T14:39:43.954Z,4.40
2023-03-16T14:40:58.552Z,4.34
2023-03-16T14:42:04.835Z,4.26
2023-03-16T14:43:12.088Z,4.19
2023-03-16T14:44:22.917Z,4.20
2023-03-16T14:45:38.901Z,4.27
2023-03-16T14:46:42.580Z,4.26
2023-03-16T14:47:50.091Z,4.16
2023-03-16T14:48:53.397Z,4.13
2023-03-16T14:49:59.160Z,4.21
2023-03-16T14:51:04.491Z,4.07
2023-03-16T14:52:15.640Z,4.11
2023-03-16T14:53:18.820Z,4.09
2023-03-16T14:54:23.519Z,4.15
2023-03-16T14:55:26.245Z,4.14
2023-03-16T14:56:35.496Z,4.11
2023-03-16T14:57:41.969Z,4.21
2023-03-16T14:58:48.105Z,4.21
2023-03-16T14:59:50.872Z,4.16
2023-03-16T15:00:55.286Z,4.11
2023-03-16T15:01:59.651Z,4.09
2023-03-16T15:03:10.112Z,4.14
2023-03-16T15:04:25.826Z,4.22
2023-03-16T15:05:36.540Z,4.18
2023-03-16T15:06:43.262Z,4.24
2023-03-16T15:07:47.322Z,4.18
2023-03-16T15:08:52.058Z,4.18
2023-03-16T15:09:56.488Z,4.26
2023-03-16T15:11:02.693Z,4.13
2023-03-16T15:12:13.326Z,4.19
2023-03-16T15:13:34.927Z,4.17
2023-03-16T15:14:55.771Z,4.14
2023-03-16T15:15:59.289Z,4.21
2023-03-16T15:17:01.885Z,4.18
2023-03-16T15:18:04.284Z,4.24
2023-03-16T15:19:06.720Z,4.20
2023-03-16T15:20:12.480Z,4.20
2023-03-16T15:21:18.592Z,4.24
2023-03-16T15:22:31.720Z,4.13
2023-03-16T15:23:36.972Z,4.12
2023-03-16T15:24:43.655Z,4.15
2023-03-16T15:25:48.812Z,4.16
2023-03-16T15:26:52.665Z,4.14
2023-03-16T15:27:56.817Z,4.03
2023-03-16T15:28:59.098Z,4.10
2023-03-16T15:30:03.247Z,4.23
2023-03-16T15:31:05.484Z,4.22
2023-03-16T15:32:14.683Z,4.16
2023-03-16T15:33:18.298Z,4.20
2023-03-16T15:34:20.667Z,4.26
2023-03-16T15:35:23.146Z,4.39
2023-03-16T15:36:26.568Z,4.42
2023-03-16T15:37:30.700Z,4.37
2023-03-16T15:38:38.192Z,4.39
2023-03-16T15:39:41.106Z,4.23
2023-03-16T15:40:51.270Z,4.35
2023-03-16T15:42:03.426Z,4.34
2023-03-16T15:43:15.936Z,4.43
2023-03-16T15:44:23.120Z,4.52
2023-03-16T15:45:27.680Z,4.51
2023-03-16T15:46:31.149Z,4.62
2023-03-16T15:47:33.540Z,4.46
2023-03-16T15:48:36.349Z,4.60